Ada, Minnesota
Current Conditions -  °F | °C
As of 4:35 PM on Thursday 23 Oct 2014 (Local Time) from K3N8 Reporting Station
Clear Clear  
Wind Chill: 19°   Ceiling: Unl
Heat Index: 19°   Visibility: 10mi
Dew Point:   Wind: 15mph
Humidity: 35%   Direction: 200°SSW
Pressure: 29.86"   Gusts: NA
Location:  47.3°N, 96.52°W
Report Text: K3N8 232135Z AUTO 20013KT 10SM CLR 19/03 A2986 RMK AO2 T01900031
Loading
Personal Weather Stations






























Interactive Weather Map
Tropical Storm Tracking
New forecast layout! Learn more

10-Day Weather Forecast

Advertisements
Track Severe Weather on mobile